sensor_id;sensor_type;location;lat;lon;timestamp;pressure;altitude;pressure_sealevel;temperature;humidity
8894;BME280;4483;48.622;9.230;2023-01-27T00:00:00;98117.09;;;0.20;100.00
8894;BME280;4483;48.622;9.230;2023-01-27T00:02:28;98113.72;;;0.19;100.00
8894;BME280;4483;48.622;9.230;2023-01-27T00:04:55;98106.13;;;0.21;100.00
8894;BME280;4483;48.622;9.230;2023-01-27T00:07:21;98103.63;;;0.25;100.00
8894;BME280;4483;48.622;9.230;2023-01-27T00:09:48;98103.63;;;0.24;100.00
8894;BME280;4483;48.622;9.230;2023-01-27T00:12:18;98100.22;;;0.26;100.00
8894;BME280;4483;48.622;9.230;2023-01-27T00:15:03;98102.75;;;0.26;100.00
8894;BME280;4483;48.622;9.230;2023-01-27T00:17:31;98107.81;;;0.26;100.00
8894;BME280;4483;48.622;9.230;2023-01-27T00:19:58;98108.69;;;0.25;100.00
8894;BME280;4483;48.622;9.230;2023-01-27T00:22:25;98099.41;;;0.26;100.00
8894;BME280;4483;48.622;9.230;2023-01-27T00:25:09;98103.63;;;0.28;100.00
8894;BME280;4483;48.622;9.230;2023-01-27T00:27:35;98099.41;;;0.30;100.00
8894;BME280;4483;48.622;9.230;2023-01-27T00:30:02;98096.00;;;0.28;100.00
8894;BME280;4483;48.622;9.230;2023-01-27T00:32:31;98096.00;;;0.30;100.00
8894;BME280;4483;48.622;9.230;2023-01-27T00:35:15;98100.25;;;0.29;100.00
8894;BME280;4483;48.622;9.230;2023-01-27T00:37:42;98101.94;;;0.29;100.00
8894;BME280;4483;48.622;9.230;2023-01-27T00:40:10;98097.69;;;0.28;100.00
8894;BME280;4483;48.622;9.230;2023-01-27T00:42:37;98095.16;;;0.25;100.00
8894;BME280;4483;48.622;9.230;2023-01-27T00:45:05;98098.53;;;0.25;100.00
8894;BME280;4483;48.622;9.230;2023-01-27T00:47:51;98102.75;;;0.26;100.00
8894;BME280;4483;48.622;9.230;2023-01-27T00:50:18;98101.94;;;0.27;100.00
8894;BME280;4483;48.622;9.230;2023-01-27T00:52:45;98095.19;;;0.29;100.00
8894;BME280;4483;48.622;9.230;2023-01-27T00:55:12;98100.25;;;0.32;100.00
8894;BME280;4483;48.622;9.230;2023-01-27T00:57:40;98107.00;;;0.32;100.00
8894;BME280;4483;48.622;9.230;2023-01-27T01:00:08;98102.78;;;0.29;100.00
8894;BME280;4483;48.622;9.230;2023-01-27T01:02:36;98107.84;;;0.32;100.00
8894;BME280;4483;48.622;9.230;2023-01-27T01:05:04;98105.31;;;0.32;100.00
8894;BME280;4483;48.622;9.230;2023-01-27T01:07:31;98098.53;;;0.31;100.00
8894;BME280;4483;48.622;9.230;2023-01-27T01:09:57;98110.38;;;0.29;100.00
8894;BME280;4483;48.622;9.230;2023-01-27T01:12:24;98107.00;;;0.32;100.00
8894;BME280;4483;48.622;9.230;2023-01-27T01:14:51;98094.34;;;0.26;100.00
8894;BME280;4483;48.622;9.230;2023-01-27T01:17:17;98110.38;;;0.29;100.00
8894;BME280;4483;48.622;9.230;2023-01-27T01:19:44;98106.16;;;0.28;100.00
8894;BME280;4483;48.622;9.230;2023-01-27T01:22:12;98107.00;;;0.29;100.00
8894;BME280;4483;48.622;9.230;2023-01-27T01:24:38;98105.28;;;0.26;100.00
8894;BME280;4483;48.622;9.230;2023-01-27T01:27:05;98107.81;;;0.26;100.00
8894;BME280;4483;48.622;9.230;2023-01-27T01:29:31;98109.50;;;0.23;100.00
8894;BME280;4483;48.622;9.230;2023-01-27T01:31:58;98109.53;;;0.27;99.64
8894;BME280;4483;48.622;9.230;2023-01-27T01:34:25;98111.22;;;0.24;100.00
8894;BME280;4483;48.622;9.230;2023-01-27T01:36:51;98116.25;;;0.22;99.67
8894;BME280;4483;48.622;9.230;2023-01-27T01:39:19;98113.72;;;0.22;99.43
8894;BME280;4483;48.622;9.230;2023-01-27T01:41:46;98113.72;;;0.19;100.00
8894;BME280;4483;48.622;9.230;2023-01-27T01:44:21;98102.72;;;0.17;99.33
8894;BME280;4483;48.622;9.230;2023-01-27T01:46:48;98105.25;;;0.17;99.53
8894;BME280;4483;48.622;9.230;2023-01-27T01:49:15;98109.50;;;0.18;99.17
8894;BME280;4483;48.622;9.230;2023-01-27T01:51:45;98103.56;;;0.19;99.58
8894;BME280;4483;48.622;9.230;2023-01-27T01:54:15;98104.44;;;0.20;100.00
8894;BME280;4483;48.622;9.230;2023-01-27T01:56:46;98106.97;;;0.21;99.53
8894;BME280;4483;48.622;9.230;2023-01-27T01:59:18;98101.06;;;0.24;99.48
8894;BME280;4483;48.622;9.230;2023-01-27T02:01:47;98095.16;;;0.26;99.95
8894;BME280;4483;48.622;9.230;2023-01-27T02:04:18;98085.88;;;0.25;99.88
8894;BME280;4483;48.622;9.230;2023-01-27T02:06:52;98090.09;;;0.26;99.49
8894;BME280;4483;48.622;9.230;2023-01-27T02:09:21;98079.13;;;0.26;99.90
8894;BME280;4483;48.622;9.230;2023-01-27T02:11:50;98089.22;;;0.23;98.49
8894;BME280;4483;48.622;9.230;2023-01-27T02:14:17;98088.38;;;0.19;98.80
8894;BME280;4483;48.622;9.230;2023-01-27T02:16:44;98093.44;;;0.19;99.69
8894;BME280;4483;48.622;9.230;2023-01-27T02:19:18;98085.03;;;0.23;99.27
8894;BME280;4483;48.622;9.230;2023-01-27T02:21:49;98090.09;;;0.22;99.73
8894;BME280;4483;48.622;9.230;2023-01-27T02:24:15;98085.03;;;0.23;99.76
8894;BME280;4483;48.622;9.230;2023-01-27T02:26:44;98074.88;;;0.22;98.96
8894;BME280;4483;48.622;9.230;2023-01-27T02:29:13;98078.25;;;0.19;98.69
8894;BME280;4483;48.622;9.230;2023-01-27T02:31:40;98076.53;;;0.17;99.44
8894;BME280;4483;48.622;9.230;2023-01-27T02:34:09;98083.31;;;0.16;99.57
8894;BME280;4483;48.622;9.230;2023-01-27T02:36:40;98076.53;;;0.17;99.09
8894;BME280;4483;48.622;9.230;2023-01-27T02:39:11;98069.78;;;0.19;98.92
8894;BME280;4483;48.622;9.230;2023-01-27T02:41:40;98073.19;;;0.19;99.51
8894;BME280;4483;48.622;9.230;2023-01-27T02:44:09;98071.50;;;0.21;99.30
8894;BME280;4483;48.622;9.230;2023-01-27T02:46:36;98071.50;;;0.23;98.94
8894;BME280;4483;48.622;9.230;2023-01-27T02:49:03;98074.03;;;0.21;98.89
8894;BME280;4483;48.622;9.230;2023-01-27T02:51:30;98063.03;;;0.16;98.86
8894;BME280;4483;48.622;9.230;2023-01-27T02:53:57;98075.72;;;0.19;99.56
8894;BME280;4483;48.622;9.230;2023-01-27T02:56:24;98073.19;;;0.22;98.94
8894;BME280;4483;48.622;9.230;2023-01-27T02:58:51;98070.63;;;0.21;99.05
8894;BME280;4483;48.622;9.230;2023-01-27T03:01:19;98071.50;;;0.24;99.51
8894;BME280;4483;48.622;9.230;2023-01-27T03:03:45;98074.03;;;0.23;98.60
8894;BME280;4483;48.622;9.230;2023-01-27T03:06:12;98063.91;;;0.21;99.25
8894;BME280;4483;48.622;9.230;2023-01-27T03:08:40;98070.63;;;0.21;99.24
8894;BME280;4483;48.622;9.230;2023-01-27T03:11:07;98070.66;;;0.24;99.03
8894;BME280;4483;48.622;9.230;2023-01-27T03:13:34;98068.13;;;0.25;99.10
8894;BME280;4483;48.622;9.230;2023-01-27T03:16:06;98061.34;;;0.24;98.56
8894;BME280;4483;48.622;9.230;2023-01-27T03:18:52;98064.75;;;0.23;99.19
8894;BME280;4483;48.622;9.230;2023-01-27T03:21:20;98072.34;;;0.26;98.80
8894;BME280;4483;48.622;9.230;2023-01-27T03:23:47;98077.44;;;0.29;99.27
8894;BME280;4483;48.622;9.230;2023-01-27T03:26:14;98072.34;;;0.28;98.71
8894;BME280;4483;48.622;9.230;2023-01-27T03:28:41;98065.59;;;0.31;99.30
8894;BME280;4483;48.622;9.230;2023-01-27T03:31:09;98064.78;;;0.32;99.48
8894;BME280;4483;48.622;9.230;2023-01-27T03:33:43;98065.63;;;0.33;99.17
8894;BME280;4483;48.622;9.230;2023-01-27T03:36:13;98070.66;;;0.31;99.09
8894;BME280;4483;48.622;9.230;2023-01-27T03:38:57;98077.44;;;0.32;98.20
8894;BME280;4483;48.622;9.230;2023-01-27T03:41:41;98071.53;;;0.27;98.31
8894;BME280;4483;48.622;9.230;2023-01-27T03:44:25;98079.94;;;0.26;98.80
8894;BME280;4483;48.622;9.230;2023-01-27T03:47:09;98078.28;;;0.25;98.98
8894;BME280;4483;48.622;9.230;2023-01-27T03:49:36;98086.69;;;0.24;98.24
8894;BME280;4483;48.622;9.230;2023-01-27T03:52:04;98090.09;;;0.23;99.51
8894;BME280;4483;48.622;9.230;2023-01-27T03:54:31;98084.16;;;0.21;98.76
8894;BME280;4483;48.622;9.230;2023-01-27T03:56:58;98083.31;;;0.22;99.52
8894;BME280;4483;48.622;9.230;2023-01-27T03:59:30;98071.50;;;0.18;98.17
8894;BME280;4483;48.622;9.230;2023-01-27T04:01:56;98082.47;;;0.19;98.98
8894;BME280;4483;48.622;9.230;2023-01-27T04:04:41;98078.25;;;0.18;98.98
8894;BME280;4483;48.622;9.230;2023-01-27T04:07:27;98091.75;;;0.20;98.59
8894;BME280;4483;48.622;9.230;2023-01-27T04:09:54;98093.41;;;0.13;98.45
8894;BME280;4483;48.622;9.230;2023-01-27T04:12:20;98090.88;;;0.09;98.67
8894;BME280;4483;48.622;9.230;2023-01-27T04:14:47;98085.81;;;0.09;99.31
8894;BME280;4483;48.622;9.230;2023-01-27T04:17:15;98088.34;;;0.09;98.52
8894;BME280;4483;48.622;9.230;2023-01-27T04:19:43;98084.13;;;0.11;98.28
8894;BME280;4483;48.622;9.230;2023-01-27T04:22:11;98084.13;;;0.09;99.03
8894;BME280;4483;48.622;9.230;2023-01-27T04:24:39;98085.81;;;0.09;98.72
8894;BME280;4483;48.622;9.230;2023-01-27T04:27:08;98085.81;;;0.10;99.46
8894;BME280;4483;48.622;9.230;2023-01-27T04:29:37;98090.88;;;0.12;99.10
8894;BME280;4483;48.622;9.230;2023-01-27T04:32:06;98088.34;;;0.10;99.10
8894;BME280;4483;48.622;9.230;2023-01-27T04:34:34;98087.53;;;0.13;98.83
8894;BME280;4483;48.622;9.230;2023-01-27T04:37:01;98095.13;;;0.14;99.03
8894;BME280;4483;48.622;9.230;2023-01-27T04:39:29;98092.56;;;0.11;98.45
8894;BME280;4483;48.622;9.230;2023-01-27T04:41:58;98090.88;;;0.10;99.07
8894;BME280;4483;48.622;9.230;2023-01-27T04:44:24;98088.34;;;0.10;98.84
8894;BME280;4483;48.622;9.230;2023-01-27T04:46:51;98086.66;;;0.09;99.24
8894;BME280;4483;48.622;9.230;2023-01-27T04:49:19;98084.94;;;0.08;99.06
8894;BME280;4483;48.622;9.230;2023-01-27T04:51:46;98084.13;;;0.11;99.02
8894;BME280;4483;48.622;9.230;2023-01-27T04:54:13;98079.91;;;0.14;99.40
8894;BME280;4483;48.622;9.230;2023-01-27T04:56:41;98089.19;;;0.15;99.17
8894;BME280;4483;48.622;9.230;2023-01-27T04:59:12;98092.59;;;0.16;98.91
8894;BME280;4483;48.622;9.230;2023-01-27T05:01:39;98099.34;;;0.15;98.87
8894;BME280;4483;48.622;9.230;2023-01-27T05:04:06;98096.78;;;0.14;99.40
8894;BME280;4483;48.622;9.230;2023-01-27T05:06:33;98101.03;;;0.15;98.79
8894;BME280;4483;48.622;9.230;2023-01-27T05:08:59;98101.03;;;0.15;98.98
8894;BME280;4483;48.622;9.230;2023-01-27T05:11:26;98099.34;;;0.14;98.06
8894;BME280;4483;48.622;9.230;2023-01-27T05:13:53;98110.31;;;0.14;98.64
8894;BME280;4483;48.622;9.230;2023-01-27T05:16:22;98103.53;;;0.13;98.77
8894;BME280;4483;48.622;9.230;2023-01-27T05:18:50;98103.53;;;0.13;98.54
8894;BME280;4483;48.622;9.230;2023-01-27T05:21:19;98111.19;;;0.15;99.16
8894;BME280;4483;48.622;9.230;2023-01-27T05:23:46;98114.53;;;0.17;99.27
8894;BME280;4483;48.622;9.230;2023-01-27T05:26:14;98113.72;;;0.19;98.78
8894;BME280;4483;48.622;9.230;2023-01-27T05:28:42;98100.19;;;0.16;98.45
8894;BME280;4483;48.622;9.230;2023-01-27T05:31:11;98110.31;;;0.17;98.84
8894;BME280;4483;48.622;9.230;2023-01-27T05:33:40;98123.81;;;0.13;98.52
8894;BME280;4483;48.622;9.230;2023-01-27T05:36:08;98122.94;;;0.08;97.95
8894;BME280;4483;48.622;9.230;2023-01-27T05:38:36;98118.69;;;0.04;98.25
8894;BME280;4483;48.622;9.230;2023-01-27T05:41:04;98122.09;;;0.03;97.76
8894;BME280;4483;48.622;9.230;2023-01-27T05:43:33;98119.56;;;0.05;98.22
8894;BME280;4483;48.622;9.230;2023-01-27T05:46:05;98121.22;;;0.06;98.25
8894;BME280;4483;48.622;9.230;2023-01-27T05:48:33;98117.88;;;0.05;98.86
8894;BME280;4483;48.622;9.230;2023-01-27T05:51:03;98113.66;;;0.07;98.90
8894;BME280;4483;48.622;9.230;2023-01-27T05:53:30;98121.28;;;0.07;98.00
8894;BME280;4483;48.622;9.230;2023-01-27T05:55:57;98122.09;;;0.06;98.77
8894;BME280;4483;48.622;9.230;2023-01-27T05:58:24;98128.84;;;0.06;97.89
8894;BME280;4483;48.622;9.230;2023-01-27T06:00:51;98123.75;;;0.01;99.11
8894;BME280;4483;48.622;9.230;2023-01-27T06:03:18;98135.59;;;0.04;98.20
8894;BME280;4483;48.622;9.230;2023-01-27T06:05:49;98127.13;;;-0.02;98.11
8894;BME280;4483;48.622;9.230;2023-01-27T06:08:17;98129.69;;;0.00;97.89
8894;BME280;4483;48.622;9.230;2023-01-27T06:10:44;98124.63;;;0.02;98.76
8894;BME280;4483;48.622;9.230;2023-01-27T06:13:10;98127.16;;;0.03;98.84
8894;BME280;4483;48.622;9.230;2023-01-27T06:15:40;98124.59;;;-0.02;98.68
8894;BME280;4483;48.622;9.230;2023-01-27T06:18:07;98133.03;;;0.02;98.37
8894;BME280;4483;48.622;9.230;2023-01-27T06:20:33;98129.69;;;0.00;98.18
8894;BME280;4483;48.622;9.230;2023-01-27T06:23:00;98132.19;;;-0.02;98.01
8894;BME280;4483;48.622;9.230;2023-01-27T06:25:28;98126.28;;;0.01;98.28
8894;BME280;4483;48.622;9.230;2023-01-27T06:27:55;98135.59;;;0.04;97.79
8894;BME280;4483;48.622;9.230;2023-01-27T06:30:22;98135.63;;;0.05;98.95
8894;BME280;4483;48.622;9.230;2023-01-27T06:32:49;98131.38;;;0.03;98.56
8894;BME280;4483;48.622;9.230;2023-01-27T06:35:16;98126.34;;;0.07;98.99
8894;BME280;4483;48.622;9.230;2023-01-27T06:37:42;98122.94;;;0.10;98.28
8894;BME280;4483;48.622;9.230;2023-01-27T06:40:10;98125.47;;;0.11;98.57
8894;BME280;4483;48.622;9.230;2023-01-27T06:42:40;98127.19;;;0.12;98.66
8894;BME280;4483;48.622;9.230;2023-01-27T06:45:08;98136.50;;;0.15;98.13
8894;BME280;4483;48.622;9.230;2023-01-27T06:47:34;98150.84;;;0.14;99.13
8894;BME280;4483;48.622;9.230;2023-01-27T06:50:01;98149.19;;;0.16;98.31
8894;BME280;4483;48.622;9.230;2023-01-27T06:52:28;98156.78;;;0.16;98.43
8894;BME280;4483;48.622;9.230;2023-01-27T06:54:54;98154.25;;;0.16;98.48
8894;BME280;4483;48.622;9.230;2023-01-27T06:57:21;98156.75;;;0.12;98.27
8894;BME280;4483;48.622;9.230;2023-01-27T06:59:49;98160.09;;;0.05;98.09
8894;BME280;4483;48.622;9.230;2023-01-27T07:02:15;98168.50;;;-0.03;97.37
8894;BME280;4483;48.622;9.230;2023-01-27T07:04:42;98171.84;;;-0.05;98.12
8894;BME280;4483;48.622;9.230;2023-01-27T07:07:09;98181.97;;;-0.07;97.73
8894;BME280;4483;48.622;9.230;2023-01-27T07:09:35;98191.25;;;-0.07;98.34
8894;BME280;4483;48.622;9.230;2023-01-27T07:12:02;98191.28;;;-0.06;98.23
8894;BME280;4483;48.622;9.230;2023-01-27T07:14:29;98192.09;;;-0.08;98.45
8894;BME280;4483;48.622;9.230;2023-01-27T07:16:57;98198.03;;;-0.05;98.11
8894;BME280;4483;48.622;9.230;2023-01-27T07:19:23;98192.97;;;-0.02;97.83
8894;BME280;4483;48.622;9.230;2023-01-27T07:21:50;98201.38;;;-0.07;97.95
8894;BME280;4483;48.622;9.230;2023-01-27T07:24:16;98197.16;;;-0.10;98.25
8894;BME280;4483;48.622;9.230;2023-01-27T07:26:43;98197.16;;;-0.10;98.30
8894;BME280;4483;48.622;9.230;2023-01-27T07:29:11;98199.69;;;-0.08;98.86
8894;BME280;4483;48.622;9.230;2023-01-27T07:31:38;98192.16;;;0.01;98.80
8894;BME280;4483;48.622;9.230;2023-01-27T07:34:06;98195.50;;;-0.02;98.12
8894;BME280;4483;48.622;9.230;2023-01-27T07:36:33;98203.94;;;-0.03;98.10
8894;BME280;4483;48.622;9.230;2023-01-27T07:38:59;98202.28;;;-0.02;98.21
8894;BME280;4483;48.622;9.230;2023-01-27T07:41:26;98203.09;;;-0.03;99.15
8894;BME280;4483;48.622;9.230;2023-01-27T07:43:53;98209.88;;;-0.02;98.52
8894;BME280;4483;48.622;9.230;2023-01-27T07:46:19;98212.38;;;-0.04;98.72
8894;BME280;4483;48.622;9.230;2023-01-27T07:48:46;98214.09;;;-0.03;98.58
8894;BME280;4483;48.622;9.230;2023-01-27T07:51:14;98213.25;;;0.00;99.17
8894;BME280;4483;48.622;9.230;2023-01-27T07:53:41;98214.97;;;0.04;99.08
8894;BME280;4483;48.622;9.230;2023-01-27T07:56:08;98216.66;;;0.05;99.03
8894;BME280;4483;48.622;9.230;2023-01-27T07:58:36;98216.66;;;0.05;98.42
8894;BME280;4483;48.622;9.230;2023-01-27T08:01:05;98220.00;;;-0.02;98.55
8894;BME280;4483;48.622;9.230;2023-01-27T08:03:31;98224.22;;;0.02;97.79
8894;BME280;4483;48.622;9.230;2023-01-27T08:05:58;98221.72;;;0.04;98.86
8894;BME280;4483;48.622;9.230;2023-01-27T08:08:30;98225.94;;;0.02;98.32
8894;BME280;4483;48.622;9.230;2023-01-27T08:10:58;98227.63;;;0.06;98.65
8894;BME280;4483;48.622;9.230;2023-01-27T08:13:25;98232.69;;;0.06;98.79
8894;BME280;4483;48.622;9.230;2023-01-27T08:15:55;98224.28;;;0.05;99.13
8894;BME280;4483;48.622;9.230;2023-01-27T08:18:21;98215.84;;;0.09;98.58
8894;BME280;4483;48.622;9.230;2023-01-27T08:20:49;98224.28;;;0.10;98.85
8894;BME280;4483;48.622;9.230;2023-01-27T08:23:17;98220.06;;;0.12;98.77
8894;BME280;4483;48.622;9.230;2023-01-27T08:25:49;98218.41;;;0.14;98.48
8894;BME280;4483;48.622;9.230;2023-01-27T08:28:16;98220.94;;;0.15;98.24
8894;BME280;4483;48.622;9.230;2023-01-27T08:30:43;98230.25;;;0.21;99.15
8894;BME280;4483;48.622;9.230;2023-01-27T08:33:10;98234.50;;;0.22;97.90
8894;BME280;4483;48.622;9.230;2023-01-27T08:35:36;98240.41;;;0.22;97.84
8894;BME280;4483;48.622;9.230;2023-01-27T08:38:07;98237.03;;;0.20;98.10
8894;BME280;4483;48.622;9.230;2023-01-27T08:40:33;98234.50;;;0.22;97.88
8894;BME280;4483;48.622;9.230;2023-01-27T08:43:01;98248.88;;;0.23;98.08
8894;BME280;4483;48.622;9.230;2023-01-27T08:45:28;98244.66;;;0.23;98.36
8894;BME280;4483;48.622;9.230;2023-01-27T08:47:55;98247.19;;;0.23;97.96
8894;BME280;4483;48.622;9.230;2023-01-27T08:50:21;98242.13;;;0.23;98.39
8894;BME280;4483;48.622;9.230;2023-01-27T08:52:48;98238.72;;;0.23;98.30
8894;BME280;4483;48.622;9.230;2023-01-27T08:55:15;98239.59;;;0.26;98.28
8894;BME280;4483;48.622;9.230;2023-01-27T08:57:42;98249.72;;;0.28;97.93
8894;BME280;4483;48.622;9.230;2023-01-27T09:00:11;98257.31;;;0.26;97.74
8894;BME280;4483;48.622;9.230;2023-01-27T09:02:38;98253.13;;;0.27;98.28
8894;BME280;4483;48.622;9.230;2023-01-27T09:05:05;98261.59;;;0.30;98.59
8894;BME280;4483;48.622;9.230;2023-01-27T09:07:32;98256.50;;;0.30;98.50
8894;BME280;4483;48.622;9.230;2023-01-27T09:09:58;98250.63;;;0.33;97.97
8894;BME280;4483;48.622;9.230;2023-01-27T09:12:25;98253.97;;;0.33;97.52
8894;BME280;4483;48.622;9.230;2023-01-27T09:14:51;98246.41;;;0.36;98.13
8894;BME280;4483;48.622;9.230;2023-01-27T09:17:19;98256.56;;;0.38;97.49
8894;BME280;4483;48.622;9.230;2023-01-27T09:19:46;98248.97;;;0.36;97.20
8894;BME280;4483;48.622;9.230;2023-01-27T09:22:13;98238.81;;;0.36;97.66
8894;BME280;4483;48.622;9.230;2023-01-27T09:24:39;98241.34;;;0.38;97.93
8894;BME280;4483;48.622;9.230;2023-01-27T09:27:06;98254.03;;;0.38;97.30
8894;BME280;4483;48.622;9.230;2023-01-27T09:29:33;98243.03;;;0.33;96.21
8894;BME280;4483;48.622;9.230;2023-01-27T09:32:01;98253.13;;;0.30;95.92
8894;BME280;4483;48.622;9.230;2023-01-27T09:34:29;98250.59;;;0.28;96.74
8894;BME280;4483;48.622;9.230;2023-01-27T09:36:58;98248.97;;;0.39;96.37
8894;BME280;4483;48.622;9.230;2023-01-27T09:39:26;98247.25;;;0.35;96.64
8894;BME280;4483;48.622;9.230;2023-01-27T09:42:14;98250.63;;;0.33;96.55
8894;BME280;4483;48.622;9.230;2023-01-27T09:47:56;98253.97;;;0.33;95.83
8894;BME280;4483;48.622;9.230;2023-01-27T09:50:36;98252.25;;;0.28;94.91
8894;BME280;4483;48.622;9.230;2023-01-27T09:56:07;98257.31;;;0.26;95.67
8894;BME280;4483;48.622;9.230;2023-01-27T09:58:47;98254.84;;;0.29;96.00
8894;BME280;4483;48.622;9.230;2023-01-27T10:01:25;98270.88;;;0.31;96.26
8894;BME280;4483;48.622;9.230;2023-01-27T10:04:08;98270.03;;;0.32;95.57
8894;BME280;4483;48.622;9.230;2023-01-27T10:07:00;98263.25;;;0.31;95.59
8894;BME280;4483;48.622;9.230;2023-01-27T10:09:55;98272.53;;;0.26;94.91
8894;BME280;4483;48.622;9.230;2023-01-27T10:12:34;98269.19;;;0.27;95.62
8894;BME280;4483;48.622;9.230;2023-01-27T10:15:12;98277.59;;;0.22;95.15
8894;BME280;4483;48.622;9.230;2023-01-27T10:17:50;98269.13;;;0.24;96.00
8894;BME280;4483;48.622;9.230;2023-01-27T10:20:26;98270.81;;;0.21;95.51
8894;BME280;4483;48.622;9.230;2023-01-27T10:23:05;98268.28;;;0.22;95.83
8894;BME280;4483;48.622;9.230;2023-01-27T10:25:43;98275.88;;;0.22;95.06
8894;BME280;4483;48.622;9.230;2023-01-27T10:28:17;98280.13;;;0.23;95.96
8894;BME280;4483;48.622;9.230;2023-01-27T10:30:50;98267.44;;;0.20;95.90
8894;BME280;4483;48.622;9.230;2023-01-27T10:33:20;98277.63;;;0.29;95.48
8894;BME280;4483;48.622;9.230;2023-01-27T10:35:50;98269.19;;;0.30;95.13
8894;BME280;4483;48.622;9.230;2023-01-27T10:38:28;98262.44;;;0.32;94.18
8894;BME280;4483;48.622;9.230;2023-01-27T10:41:05;98271.72;;;0.32;95.05
8894;BME280;4483;48.622;9.230;2023-01-27T10:43:43;98274.25;;;0.29;95.11
8894;BME280;4483;48.622;9.230;2023-01-27T10:46:26;98276.78;;;0.29;94.07
8894;BME280;4483;48.622;9.230;2023-01-27T10:49:02;98277.59;;;0.28;94.42
8894;BME280;4483;48.622;9.230;2023-01-27T10:51:34;98278.47;;;0.28;94.48
8894;BME280;4483;48.622;9.230;2023-01-27T10:54:08;98275.91;;;0.25;93.90
8894;BME280;4483;48.622;9.230;2023-01-27T10:56:40;98281.06;;;0.36;94.47
8894;BME280;4483;48.622;9.230;2023-01-27T10:59:15;98275.16;;;0.41;94.84
8894;BME280;4483;48.622;9.230;2023-01-27T11:01:47;98277.75;;;0.47;94.66
8894;BME280;4483;48.622;9.230;2023-01-27T11:04:23;98279.44;;;0.48;94.61
8894;BME280;4483;48.622;9.230;2023-01-27T11:06:55;98274.34;;;0.48;94.39
8894;BME280;4483;48.622;9.230;2023-01-27T11:09:27;98277.75;;;0.50;94.45
8894;BME280;4483;48.622;9.230;2023-01-27T11:11:58;98275.25;;;0.55;94.13
8894;BME280;4483;48.622;9.230;2023-01-27T11:14:29;98270.19;;;0.62;94.69
8894;BME280;4483;48.622;9.230;2023-01-27T11:17:02;98267.66;;;0.59;92.14
8894;BME280;4483;48.622;9.230;2023-01-27T11:19:40;98268.53;;;0.58;93.64
8894;BME280;4483;48.622;9.230;2023-01-27T11:22:16;98258.41;;;0.66;94.15
8894;BME280;4483;48.622;9.230;2023-01-27T11:24:51;98260.09;;;0.70;92.64
8894;BME280;4483;48.622;9.230;2023-01-27T11:27:30;98263.50;;;0.70;93.24
8894;BME280;4483;48.622;9.230;2023-01-27T11:30:01;98243.16;;;0.64;92.58
8894;BME280;4483;48.622;9.230;2023-01-27T11:32:41;98262.69;;;0.77;92.61
8894;BME280;4483;48.622;9.230;2023-01-27T11:35:14;98267.75;;;0.79;93.52
8894;BME280;4483;48.622;9.230;2023-01-27T11:37:42;98260.19;;;0.80;92.56
8894;BME280;4483;48.622;9.230;2023-01-27T11:40:17;98255.94;;;0.82;93.29
8894;BME280;4483;48.622;9.230;2023-01-27T11:42:45;98261.06;;;0.91;92.40
8894;BME280;4483;48.622;9.230;2023-01-27T11:45:14;98240.78;;;0.94;93.57
8894;BME280;4483;48.622;9.230;2023-01-27T11:47:41;98245.84;;;0.94;93.46
8894;BME280;4483;48.622;9.230;2023-01-27T11:50:13;98230.63;;;0.94;93.03
8894;BME280;4483;48.622;9.230;2023-01-27T11:52:42;98234.03;;;0.95;91.33
8894;BME280;4483;48.622;9.230;2023-01-27T11:55:17;98241.63;;;0.98;92.54
8894;BME280;4483;48.622;9.230;2023-01-27T11:57:48;98236.56;;;0.96;92.15
8894;BME280;4483;48.622;9.230;2023-01-27T12:00:20;98239.09;;;1.01;92.79
8894;BME280;4483;48.622;9.230;2023-01-27T12:02:54;98234.88;;;1.03;91.56
8894;BME280;4483;48.622;9.230;2023-01-27T12:05:27;98236.56;;;0.96;91.54
8894;BME280;4483;48.622;9.230;2023-01-27T12:07:57;98231.47;;;0.95;92.20
8894;BME280;4483;48.622;9.230;2023-01-27T12:10:29;98234.88;;;0.97;92.08
8894;BME280;4483;48.622;9.230;2023-01-27T12:12:57;98237.41;;;0.98;92.63
8894;BME280;4483;48.622;9.230;2023-01-27T12:15:25;98235.69;;;0.97;91.32
8894;BME280;4483;48.622;9.230;2023-01-27T12:17:55;98234.84;;;0.94;91.75
8894;BME280;4483;48.622;9.230;2023-01-27T12:20:29;98229.78;;;0.92;91.51
8894;BME280;4483;48.622;9.230;2023-01-27T12:22:59;98221.34;;;0.96;91.98
8894;BME280;4483;48.622;9.230;2023-01-27T12:25:30;98222.19;;;0.98;91.00
8894;BME280;4483;48.622;9.230;2023-01-27T12:27:59;98217.97;;;1.02;91.59
8894;BME280;4483;48.622;9.230;2023-01-27T12:30:29;98222.19;;;1.04;91.71
8894;BME280;4483;48.622;9.230;2023-01-27T12:32:58;98233.22;;;1.08;92.23
8894;BME280;4483;48.622;9.230;2023-01-27T12:35:28;98229.81;;;1.08;90.77
8894;BME280;4483;48.622;9.230;2023-01-27T12:37:58;98233.22;;;1.10;91.48
8894;BME280;4483;48.622;9.230;2023-01-27T12:40:28;98233.22;;;1.08;91.42
8894;BME280;4483;48.622;9.230;2023-01-27T12:43:08;98221.34;;;1.09;91.37
8894;BME280;4483;48.622;9.230;2023-01-27T12:45:35;98225.59;;;1.13;92.29
8894;BME280;4483;48.622;9.230;2023-01-27T12:48:16;98223.09;;;1.17;92.09
8894;BME280;4483;48.622;9.230;2023-01-27T12:50:53;98214.63;;;1.18;91.54
8894;BME280;4483;48.622;9.230;2023-01-27T12:53:21;98216.31;;;1.16;91.82
8894;BME280;4483;48.622;9.230;2023-01-27T12:55:53;98209.53;;;1.18;92.03
8894;BME280;4483;48.622;9.230;2023-01-27T12:58:28;98213.75;;;1.16;91.59
8894;BME280;4483;48.622;9.230;2023-01-27T13:00:57;98211.22;;;1.16;91.69
8894;BME280;4483;48.622;9.230;2023-01-27T13:03:25;98215.44;;;1.16;91.83
8894;BME280;4483;48.622;9.230;2023-01-27T13:05:52;98212.06;;;1.14;92.00
8894;BME280;4483;48.622;9.230;2023-01-27T13:08:21;98210.38;;;1.13;91.96
8894;BME280;4483;48.622;9.230;2023-01-27T13:10:53;98215.44;;;1.13;91.91
8894;BME280;4483;48.622;9.230;2023-01-27T13:13:24;98209.53;;;1.12;91.69
8894;BME280;4483;48.622;9.230;2023-01-27T13:15:52;98218.84;;;1.15;91.39
8894;BME280;4483;48.622;9.230;2023-01-27T13:18:21;98218.00;;;1.13;91.73
8894;BME280;4483;48.622;9.230;2023-01-27T13:20:50;98205.31;;;1.13;91.83
8894;BME280;4483;48.622;9.230;2023-01-27T13:23:21;98206.16;;;1.15;91.87
8894;BME280;4483;48.622;9.230;2023-01-27T13:25:53;98208.69;;;1.13;91.45
8894;BME280;4483;48.622;9.230;2023-01-27T13:28:27;98204.47;;;1.15;92.30
8894;BME280;4483;48.622;9.230;2023-01-27T13:30:58;98201.09;;;1.16;91.53
8894;BME280;4483;48.622;9.230;2023-01-27T13:33:38;98210.38;;;1.14;91.48
8894;BME280;4483;48.622;9.230;2023-01-27T13:36:15;98208.69;;;1.15;91.81
8894;BME280;4483;48.622;9.230;2023-01-27T13:38:49;98208.69;;;1.18;91.88
8894;BME280;4483;48.622;9.230;2023-01-27T13:41:21;98212.09;;;1.17;91.42
8894;BME280;4483;48.622;9.230;2023-01-27T13:43:56;98225.59;;;1.16;91.96
8894;BME280;4483;48.622;9.230;2023-01-27T13:46:27;98227.28;;;1.14;91.49
8894;BME280;4483;48.622;9.230;2023-01-27T13:48:58;98235.75;;;1.13;91.38